sensor_id;sensor_type;location;lat;lon;timestamp;pressure;altitude;pressure_sealevel;temperature;humidity
45071;BME280;30836;48.906;9.140;2023-02-19T00:00:43;991.98;;;15.52;56.64
45071;BME280;30836;48.906;9.140;2023-02-19T00:01:44;992.00;;;15.53;56.63
45071;BME280;30836;48.906;9.140;2023-02-19T00:02:46;991.98;;;15.53;56.64
45071;BME280;30836;48.906;9.140;2023-02-19T00:03:47;992.00;;;15.55;56.57
45071;BME280;30836;48.906;9.140;2023-02-19T00:04:50;992.00;;;15.57;56.57
45071;BME280;30836;48.906;9.140;2023-02-19T00:05:50;991.95;;;15.56;56.69
45071;BME280;30836;48.906;9.140;2023-02-19T00:06:51;991.95;;;15.53;56.84
45071;BME280;30836;48.906;9.140;2023-02-19T00:07:51;991.93;;;15.51;56.86
45071;BME280;30836;48.906;9.140;2023-02-19T00:08:52;991.95;;;15.49;56.95
45071;BME280;30836;48.906;9.140;2023-02-19T00:09:53;991.96;;;15.42;57.17
45071;BME280;30836;48.906;9.140;2023-02-19T00:10:53;991.91;;;15.26;57.91
45071;BME280;30836;48.906;9.140;2023-02-19T00:11:54;991.89;;;15.09;58.13
45071;BME280;30836;48.906;9.140;2023-02-19T00:12:54;991.89;;;15.03;58.01
45071;BME280;30836;48.906;9.140;2023-02-19T00:13:55;991.87;;;15.02;58.13
45071;BME280;30836;48.906;9.140;2023-02-19T00:14:57;991.85;;;15.00;58.23
45071;BME280;30836;48.906;9.140;2023-02-19T00:15:57;991.83;;;14.99;58.30
45071;BME280;30836;48.906;9.140;2023-02-19T00:16:57;991.83;;;14.97;58.24
45071;BME280;30836;48.906;9.140;2023-02-19T00:17:58;991.83;;;14.99;58.12
45071;BME280;30836;48.906;9.140;2023-02-19T00:18:59;991.83;;;14.99;58.14
45071;BME280;30836;48.906;9.140;2023-02-19T00:20:01;991.85;;;14.97;58.14
45071;BME280;30836;48.906;9.140;2023-02-19T00:21:02;991.85;;;14.97;58.32
45071;BME280;30836;48.906;9.140;2023-02-19T00:22:03;991.89;;;14.91;58.58
45071;BME280;30836;48.906;9.140;2023-02-19T00:23:03;991.89;;;14.79;59.08
45071;BME280;30836;48.906;9.140;2023-02-19T00:24:04;991.93;;;14.63;59.74
45071;BME280;30836;48.906;9.140;2023-02-19T00:25:06;991.89;;;14.50;59.70
45071;BME280;30836;48.906;9.140;2023-02-19T00:26:10;991.93;;;14.48;59.51
45071;BME280;30836;48.906;9.140;2023-02-19T00:27:11;991.93;;;14.51;59.46
45071;BME280;30836;48.906;9.140;2023-02-19T00:28:12;991.91;;;14.56;59.30
45071;BME280;30836;48.906;9.140;2023-02-19T00:29:14;991.96;;;14.56;59.58
45071;BME280;30836;48.906;9.140;2023-02-19T00:30:17;991.96;;;14.51;59.61
45071;BME280;30836;48.906;9.140;2023-02-19T00:31:18;991.96;;;14.51;59.54
45071;BME280;30836;48.906;9.140;2023-02-19T00:32:21;991.96;;;14.53;59.41
45071;BME280;30836;48.906;9.140;2023-02-19T00:33:21;991.95;;;14.55;59.50
45071;BME280;30836;48.906;9.140;2023-02-19T00:34:22;991.96;;;14.54;59.51
45071;BME280;30836;48.906;9.140;2023-02-19T00:35:22;991.98;;;14.52;59.70
45071;BME280;30836;48.906;9.140;2023-02-19T00:36:23;991.96;;;14.52;59.52
45071;BME280;30836;48.906;9.140;2023-02-19T00:37:24;991.98;;;14.54;59.54
45071;BME280;30836;48.906;9.140;2023-02-19T00:38:25;991.98;;;14.52;59.56
45071;BME280;30836;48.906;9.140;2023-02-19T00:39:25;991.98;;;14.48;59.76
45071;BME280;30836;48.906;9.140;2023-02-19T00:40:26;992.02;;;14.42;59.92
45071;BME280;30836;48.906;9.140;2023-02-19T00:41:26;991.98;;;14.38;59.81
45071;BME280;30836;48.906;9.140;2023-02-19T00:41:36;992.00;;;14.41;59.65
45071;BME280;30836;48.906;9.140;2023-02-19T00:42:37;991.98;;;14.45;59.51
45071;BME280;30836;48.906;9.140;2023-02-19T00:43:37;991.98;;;14.52;59.49
45071;BME280;30836;48.906;9.140;2023-02-19T00:44:38;991.98;;;14.54;59.41
45071;BME280;30836;48.906;9.140;2023-02-19T00:45:38;992.00;;;14.54;59.48
45071;BME280;30836;48.906;9.140;2023-02-19T00:46:40;992.00;;;14.58;59.31
45071;BME280;30836;48.906;9.140;2023-02-19T00:47:42;991.96;;;14.66;59.02
45071;BME280;30836;48.906;9.140;2023-02-19T00:48:42;991.95;;;14.78;58.75
45071;BME280;30836;48.906;9.140;2023-02-19T00:49:43;991.93;;;14.91;58.38
45071;BME280;30836;48.906;9.140;2023-02-19T00:50:43;991.91;;;15.04;57.97
45071;BME280;30836;48.906;9.140;2023-02-19T00:51:44;991.89;;;15.13;57.96
45071;BME280;30836;48.906;9.140;2023-02-19T00:52:45;991.85;;;15.20;57.63
45071;BME280;30836;48.906;9.140;2023-02-19T00:53:46;991.79;;;15.32;57.26
45071;BME280;30836;48.906;9.140;2023-02-19T00:54:46;991.79;;;15.46;56.81
45071;BME280;30836;48.906;9.140;2023-02-19T00:55:47;991.81;;;15.59;56.36
45071;BME280;30836;48.906;9.140;2023-02-19T00:56:47;991.85;;;15.69;56.30
45071;BME280;30836;48.906;9.140;2023-02-19T00:57:48;991.87;;;15.77;55.94
45071;BME280;30836;48.906;9.140;2023-02-19T00:58:49;991.87;;;15.76;56.21
45071;BME280;30836;48.906;9.140;2023-02-19T00:59:50;991.81;;;15.73;56.14
45071;BME280;30836;48.906;9.140;2023-02-19T01:00:50;991.77;;;15.75;56.01
45071;BME280;30836;48.906;9.140;2023-02-19T01:01:50;991.79;;;15.78;56.04
45071;BME280;30836;48.906;9.140;2023-02-19T01:02:51;991.79;;;15.80;56.05
45071;BME280;30836;48.906;9.140;2023-02-19T01:03:51;991.79;;;15.85;55.72
45071;BME280;30836;48.906;9.140;2023-02-19T01:04:52;991.77;;;15.94;55.40
45071;BME280;30836;48.906;9.140;2023-02-19T01:05:52;991.75;;;15.99;55.43
45071;BME280;30836;48.906;9.140;2023-02-19T01:06:53;991.71;;;15.95;55.75
45071;BME280;30836;48.906;9.140;2023-02-19T01:07:53;991.69;;;15.87;55.94
45071;BME280;30836;48.906;9.140;2023-02-19T01:08:54;991.69;;;15.77;56.19
45071;BME280;30836;48.906;9.140;2023-02-19T01:09:54;991.65;;;15.66;56.43
45071;BME280;30836;48.906;9.140;2023-02-19T01:10:55;991.65;;;15.55;56.74
45071;BME280;30836;48.906;9.140;2023-02-19T01:11:56;991.61;;;15.46;56.94
45071;BME280;30836;48.906;9.140;2023-02-19T01:12:56;991.63;;;15.38;57.16
45071;BME280;30836;48.906;9.140;2023-02-19T01:13:57;991.65;;;15.31;57.26
45071;BME280;30836;48.906;9.140;2023-02-19T01:14:59;991.59;;;15.28;57.29
45071;BME280;30836;48.906;9.140;2023-02-19T01:17:04;991.59;;;15.30;57.17
45071;BME280;30836;48.906;9.140;2023-02-19T01:18:04;991.55;;;15.32;57.06
45071;BME280;30836;48.906;9.140;2023-02-19T01:19:05;991.57;;;15.32;57.25
45071;BME280;30836;48.906;9.140;2023-02-19T01:20:06;991.57;;;15.26;57.37
45071;BME280;30836;48.906;9.140;2023-02-19T01:21:07;991.57;;;15.25;57.18
45071;BME280;30836;48.906;9.140;2023-02-19T01:22:11;991.63;;;15.28;57.19
45071;BME280;30836;48.906;9.140;2023-02-19T01:23:12;991.63;;;15.29;57.12
45071;BME280;30836;48.906;9.140;2023-02-19T01:24:13;991.65;;;15.29;57.15
45071;BME280;30836;48.906;9.140;2023-02-19T01:25:13;991.65;;;15.31;57.10
45071;BME280;30836;48.906;9.140;2023-02-19T01:26:15;991.65;;;15.32;57.06
45071;BME280;30836;48.906;9.140;2023-02-19T01:27:17;991.61;;;15.32;57.07
45071;BME280;30836;48.906;9.140;2023-02-19T01:28:18;991.59;;;15.32;57.01
45071;BME280;30836;48.906;9.140;2023-02-19T01:29:18;991.55;;;15.33;57.05
45071;BME280;30836;48.906;9.140;2023-02-19T01:30:19;991.59;;;15.32;57.07
45071;BME280;30836;48.906;9.140;2023-02-19T01:31:21;991.55;;;15.32;57.01
45071;BME280;30836;48.906;9.140;2023-02-19T01:32:22;991.57;;;15.40;56.79
45071;BME280;30836;48.906;9.140;2023-02-19T01:33:23;991.59;;;15.53;56.27
45071;BME280;30836;48.906;9.140;2023-02-19T01:34:23;991.57;;;15.68;55.81
45071;BME280;30836;48.906;9.140;2023-02-19T01:35:24;991.61;;;15.83;55.48
45071;BME280;30836;48.906;9.140;2023-02-19T01:36:24;991.63;;;15.94;55.12
45071;BME280;30836;48.906;9.140;2023-02-19T01:37:25;991.61;;;16.00;55.13
45071;BME280;30836;48.906;9.140;2023-02-19T01:38:26;991.63;;;16.08;54.86
45071;BME280;30836;48.906;9.140;2023-02-19T01:39:26;991.59;;;16.17;54.72
45071;BME280;30836;48.906;9.140;2023-02-19T01:40:27;991.59;;;16.25;54.47
45071;BME280;30836;48.906;9.140;2023-02-19T01:41:27;991.59;;;16.30;54.27
45071;BME280;30836;48.906;9.140;2023-02-19T01:42:28;991.57;;;16.33;54.33
45071;BME280;30836;48.906;9.140;2023-02-19T01:43:30;991.53;;;16.34;54.27
45071;BME280;30836;48.906;9.140;2023-02-19T01:45:33;991.61;;;16.39;54.08
45071;BME280;30836;48.906;9.140;2023-02-19T01:46:37;991.61;;;16.42;53.98
45071;BME280;30836;48.906;9.140;2023-02-19T01:47:38;991.59;;;16.44;53.96
45071;BME280;30836;48.906;9.140;2023-02-19T01:48:39;991.61;;;16.47;53.83
45071;BME280;30836;48.906;9.140;2023-02-19T01:50:49;991.55;;;16.52;53.76
45071;BME280;30836;48.906;9.140;2023-02-19T01:51:58;991.55;;;16.50;53.92
45071;BME280;30836;48.906;9.140;2023-02-19T01:53:01;991.53;;;16.44;54.21
45071;BME280;30836;48.906;9.140;2023-02-19T01:54:04;991.53;;;16.40;54.20
45071;BME280;30836;48.906;9.140;2023-02-19T01:54:15;991.53;;;16.39;54.17
45071;BME280;30836;48.906;9.140;2023-02-19T01:54:27;991.49;;;16.27;54.16
45071;BME280;30836;48.906;9.140;2023-02-19T01:55:33;991.51;;;16.26;54.42
45071;BME280;30836;48.906;9.140;2023-02-19T01:56:35;991.49;;;16.21;54.70
45071;BME280;30836;48.906;9.140;2023-02-19T01:57:40;991.49;;;16.09;55.19
45071;BME280;30836;48.906;9.140;2023-02-19T01:58:45;991.48;;;15.91;55.84
45071;BME280;30836;48.906;9.140;2023-02-19T01:59:46;991.51;;;15.76;56.13
45071;BME280;30836;48.906;9.140;2023-02-19T02:00:49;991.51;;;15.65;56.52
45071;BME280;30836;48.906;9.140;2023-02-19T02:01:50;991.51;;;15.62;56.33
45071;BME280;30836;48.906;9.140;2023-02-19T02:02:51;991.55;;;15.67;56.04
45071;BME280;30836;48.906;9.140;2023-02-19T02:03:55;991.51;;;15.72;55.95
45071;BME280;30836;48.906;9.140;2023-02-19T02:04:56;991.55;;;15.77;55.92
45071;BME280;30836;48.906;9.140;2023-02-19T02:06:00;991.57;;;15.83;55.74
45071;BME280;30836;48.906;9.140;2023-02-19T02:07:04;991.55;;;15.87;55.85
45071;BME280;30836;48.906;9.140;2023-02-19T02:08:06;991.53;;;15.84;56.10
45071;BME280;30836;48.906;9.140;2023-02-19T02:09:06;991.51;;;15.82;55.86
45071;BME280;30836;48.906;9.140;2023-02-19T02:10:07;991.49;;;15.81;56.18
45071;BME280;30836;48.906;9.140;2023-02-19T02:11:07;991.49;;;15.74;56.26
45071;BME280;30836;48.906;9.140;2023-02-19T02:12:08;991.48;;;15.69;56.65
45071;BME280;30836;48.906;9.140;2023-02-19T02:13:09;991.42;;;15.66;56.31
45071;BME280;30836;48.906;9.140;2023-02-19T02:14:09;991.42;;;15.69;56.31
45071;BME280;30836;48.906;9.140;2023-02-19T02:15:10;991.40;;;15.71;56.15
45071;BME280;30836;48.906;9.140;2023-02-19T02:17:24;991.38;;;15.73;56.28
45071;BME280;30836;48.906;9.140;2023-02-19T02:18:30;991.32;;;15.72;56.22
45071;BME280;30836;48.906;9.140;2023-02-19T02:21:10;991.32;;;15.73;56.37
45071;BME280;30836;48.906;9.140;2023-02-19T02:24:24;991.22;;;15.73;56.03
45071;BME280;30836;48.906;9.140;2023-02-19T02:32:10;991.08;;;15.79;56.14
45071;BME280;30836;48.906;9.140;2023-02-19T02:34:26;991.08;;;15.80;56.04
45071;BME280;30836;48.906;9.140;2023-02-19T02:35:37;991.06;;;15.80;55.86
45071;BME280;30836;48.906;9.140;2023-02-19T02:36:42;991.06;;;15.81;55.85
45071;BME280;30836;48.906;9.140;2023-02-19T02:37:44;991.08;;;15.83;55.80
45071;BME280;30836;48.906;9.140;2023-02-19T02:38:46;991.10;;;15.88;55.62
45071;BME280;30836;48.906;9.140;2023-02-19T02:39:48;991.10;;;15.91;55.62
45071;BME280;30836;48.906;9.140;2023-02-19T02:40:48;991.10;;;15.93;55.54
45071;BME280;30836;48.906;9.140;2023-02-19T02:41:00;991.08;;;16.04;55.47
45071;BME280;30836;48.906;9.140;2023-02-19T02:42:01;991.10;;;16.02;55.36
45071;BME280;30836;48.906;9.140;2023-02-19T02:43:02;991.08;;;15.94;55.75
45071;BME280;30836;48.906;9.140;2023-02-19T02:44:02;991.06;;;15.84;56.06
45071;BME280;30836;48.906;9.140;2023-02-19T02:46:18;991.06;;;15.63;56.82
45071;BME280;30836;48.906;9.140;2023-02-19T02:47:25;991.06;;;15.55;56.91
45071;BME280;30836;48.906;9.140;2023-02-19T02:49:32;991.06;;;15.29;57.79
45071;BME280;30836;48.906;9.140;2023-02-19T02:51:44;991.04;;;15.03;58.37
45071;BME280;30836;48.906;9.140;2023-02-19T02:52:49;991.04;;;15.02;58.31
45071;BME280;30836;48.906;9.140;2023-02-19T02:54:59;991.06;;;15.24;57.45
45071;BME280;30836;48.906;9.140;2023-02-19T02:56:00;991.06;;;15.31;57.33
45071;BME280;30836;48.906;9.140;2023-02-19T02:57:01;991.10;;;15.38;57.15
45071;BME280;30836;48.906;9.140;2023-02-19T02:58:02;991.10;;;15.44;57.25
45071;BME280;30836;48.906;9.140;2023-02-19T02:59:04;991.04;;;15.47;56.94
45071;BME280;30836;48.906;9.140;2023-02-19T03:00:07;991.08;;;15.56;56.81
45071;BME280;30836;48.906;9.140;2023-02-19T03:01:10;991.08;;;15.57;56.73
45071;BME280;30836;48.906;9.140;2023-02-19T03:02:19;991.06;;;15.57;56.75
45071;BME280;30836;48.906;9.140;2023-02-19T03:03:23;991.04;;;15.55;56.97
45071;BME280;30836;48.906;9.140;2023-02-19T03:05:29;991.00;;;15.52;56.81
45071;BME280;30836;48.906;9.140;2023-02-19T03:06:31;991.02;;;15.59;56.41
45071;BME280;30836;48.906;9.140;2023-02-19T03:07:37;991.04;;;15.62;56.74
45071;BME280;30836;48.906;9.140;2023-02-19T03:08:44;991.04;;;15.58;56.77
45071;BME280;30836;48.906;9.140;2023-02-19T03:09:55;991.00;;;15.58;56.44
45071;BME280;30836;48.906;9.140;2023-02-19T03:11:04;990.94;;;15.56;56.83
45071;BME280;30836;48.906;9.140;2023-02-19T03:12:09;990.98;;;15.51;56.64
45071;BME280;30836;48.906;9.140;2023-02-19T03:13:15;991.02;;;15.47;57.13
45071;BME280;30836;48.906;9.140;2023-02-19T03:14:25;990.98;;;15.40;57.06
45071;BME280;30836;48.906;9.140;2023-02-19T03:15:33;990.98;;;15.39;56.88
45071;BME280;30836;48.906;9.140;2023-02-19T03:16:42;991.00;;;15.37;57.39
45071;BME280;30836;48.906;9.140;2023-02-19T03:18:54;990.93;;;15.25;57.25
45071;BME280;30836;48.906;9.140;2023-02-19T03:19:58;990.91;;;15.25;57.40
45071;BME280;30836;48.906;9.140;2023-02-19T03:21:02;990.94;;;15.24;57.45
45071;BME280;30836;48.906;9.140;2023-02-19T03:23:18;990.89;;;15.20;57.60
45071;BME280;30836;48.906;9.140;2023-02-19T03:25:31;990.89;;;15.23;57.10
45071;BME280;30836;48.906;9.140;2023-02-19T03:26:34;990.85;;;15.22;57.66
45071;BME280;30836;48.906;9.140;2023-02-19T03:27:38;990.87;;;15.12;57.98
45071;BME280;30836;48.906;9.140;2023-02-19T03:28:41;990.87;;;15.09;57.71
45071;BME280;30836;48.906;9.140;2023-02-19T03:29:47;990.93;;;15.06;58.02
45071;BME280;30836;48.906;9.140;2023-02-19T03:30:51;990.87;;;15.01;57.97
45071;BME280;30836;48.906;9.140;2023-02-19T03:31:55;990.85;;;14.99;58.19
45071;BME280;30836;48.906;9.140;2023-02-19T03:33:00;990.89;;;14.94;58.06
45071;BME280;30836;48.906;9.140;2023-02-19T03:34:09;990.89;;;14.89;58.53
45071;BME280;30836;48.906;9.140;2023-02-19T03:35:19;990.89;;;14.86;58.38
45071;BME280;30836;48.906;9.140;2023-02-19T03:36:23;990.89;;;14.86;58.31
45071;BME280;30836;48.906;9.140;2023-02-19T03:39:51;990.83;;;14.78;58.38
45071;BME280;30836;48.906;9.140;2023-02-19T03:42:04;990.83;;;14.81;58.06
45071;BME280;30836;48.906;9.140;2023-02-19T03:46:47;990.87;;;14.61;58.84
45071;BME280;30836;48.906;9.140;2023-02-19T03:48:00;990.91;;;14.50;58.76
45071;BME280;30836;48.906;9.140;2023-02-19T03:49:03;990.89;;;14.52;58.68
45071;BME280;30836;48.906;9.140;2023-02-19T03:50:16;990.89;;;14.49;58.85
45071;BME280;30836;48.906;9.140;2023-02-19T03:57:12;990.93;;;14.41;58.49
45071;BME280;30836;48.906;9.140;2023-02-19T03:58:23;990.94;;;14.39;58.36
45071;BME280;30836;48.906;9.140;2023-02-19T03:59:33;990.94;;;14.40;58.28
45071;BME280;30836;48.906;9.140;2023-02-19T04:01:53;990.96;;;14.51;57.88
45071;BME280;30836;48.906;9.140;2023-02-19T04:05:27;991.10;;;14.43;58.41
45071;BME280;30836;48.906;9.140;2023-02-19T04:06:31;991.10;;;14.20;58.75
45071;BME280;30836;48.906;9.140;2023-02-19T04:07:34;991.10;;;14.12;58.60
45071;BME280;30836;48.906;9.140;2023-02-19T04:08:38;991.10;;;14.04;58.95
45071;BME280;30836;48.906;9.140;2023-02-19T04:09:44;991.10;;;13.92;58.91
45071;BME280;30836;48.906;9.140;2023-02-19T04:10:47;991.08;;;13.80;59.47
45071;BME280;30836;48.906;9.140;2023-02-19T04:11:49;991.08;;;13.73;59.43
45071;BME280;30836;48.906;9.140;2023-02-19T04:13:11;991.12;;;13.66;59.71
45071;BME280;30836;48.906;9.140;2023-02-19T04:14:05;991.16;;;13.46;60.22
45071;BME280;30836;48.906;9.140;2023-02-19T04:15:15;991.12;;;13.29;60.60
45071;BME280;30836;48.906;9.140;2023-02-19T04:16:19;991.08;;;13.22;60.43
45071;BME280;30836;48.906;9.140;2023-02-19T04:17:25;991.20;;;13.31;59.76
45071;BME280;30836;48.906;9.140;2023-02-19T04:18:31;991.16;;;13.41;59.73
45071;BME280;30836;48.906;9.140;2023-02-19T04:19:36;991.22;;;13.42;59.72
45071;BME280;30836;48.906;9.140;2023-02-19T04:20:42;991.26;;;13.50;59.46
45071;BME280;30836;48.906;9.140;2023-02-19T04:21:44;991.20;;;13.52;59.51
45071;BME280;30836;48.906;9.140;2023-02-19T04:22:46;991.24;;;13.42;60.29
45071;BME280;30836;48.906;9.140;2023-02-19T04:23:47;991.20;;;13.34;60.10
45071;BME280;30836;48.906;9.140;2023-02-19T04:24:49;991.24;;;13.43;59.62
45071;BME280;30836;48.906;9.140;2023-02-19T04:25:53;991.22;;;13.65;58.84
45071;BME280;30836;48.906;9.140;2023-02-19T04:26:56;991.30;;;13.81;58.87
45071;BME280;30836;48.906;9.140;2023-02-19T04:27:58;991.28;;;13.90;58.62
45071;BME280;30836;48.906;9.140;2023-02-19T04:28:58;991.40;;;13.91;58.68
45071;BME280;30836;48.906;9.140;2023-02-19T04:29:59;991.38;;;13.79;59.50
45071;BME280;30836;48.906;9.140;2023-02-19T04:31:00;991.40;;;13.70;59.51
45071;BME280;30836;48.906;9.140;2023-02-19T04:32:00;991.42;;;13.70;59.35
45071;BME280;30836;48.906;9.140;2023-02-19T04:33:01;991.38;;;13.71;59.27
45071;BME280;30836;48.906;9.140;2023-02-19T04:34:02;991.38;;;13.70;59.38
45071;BME280;30836;48.906;9.140;2023-02-19T04:35:02;991.48;;;13.77;58.87
45071;BME280;30836;48.906;9.140;2023-02-19T04:36:03;991.44;;;13.80;59.05
45071;BME280;30836;48.906;9.140;2023-02-19T04:37:04;991.42;;;13.73;59.47
45071;BME280;30836;48.906;9.140;2023-02-19T04:38:05;991.46;;;13.56;60.37
45071;BME280;30836;48.906;9.140;2023-02-19T04:39:05;991.44;;;13.36;60.66
45071;BME280;30836;48.906;9.140;2023-02-19T04:40:06;991.46;;;13.29;60.30
45071;BME280;30836;48.906;9.140;2023-02-19T04:41:08;991.49;;;13.39;59.64
45071;BME280;30836;48.906;9.140;2023-02-19T04:42:09;991.48;;;13.58;59.35
45071;BME280;30836;48.906;9.140;2023-02-19T04:43:10;991.49;;;13.78;58.99
45071;BME280;30836;48.906;9.140;2023-02-19T04:44:10;991.55;;;13.87;58.80
45071;BME280;30836;48.906;9.140;2023-02-19T04:45:11;991.57;;;13.74;59.99
45071;BME280;30836;48.906;9.140;2023-02-19T04:46:11;991.57;;;13.58;60.13
45071;BME280;30836;48.906;9.140;2023-02-19T04:47:11;991.69;;;13.58;59.82
45071;BME280;30836;48.906;9.140;2023-02-19T04:48:12;991.59;;;13.62;59.51
45071;BME280;30836;48.906;9.140;2023-02-19T04:49:12;991.61;;;13.75;58.83
45071;BME280;30836;48.906;9.140;2023-02-19T04:50:13;991.55;;;13.89;58.84
45071;BME280;30836;48.906;9.140;2023-02-19T04:51:13;991.59;;;13.92;58.76
45071;BME280;30836;48.906;9.140;2023-02-19T04:52:14;991.61;;;13.88;59.14
45071;BME280;30836;48.906;9.140;2023-02-19T04:53:14;991.65;;;13.84;59.03
45071;BME280;30836;48.906;9.140;2023-02-19T04:54:15;991.67;;;13.80;59.17
45071;BME280;30836;48.906;9.140;2023-02-19T04:55:15;991.67;;;13.76;59.42
45071;BME280;30836;48.906;9.140;2023-02-19T04:56:16;991.65;;;13.73;59.30
45071;BME280;30836;48.906;9.140;2023-02-19T04:57:17;991.63;;;13.70;59.62
45071;BME280;30836;48.906;9.140;2023-02-19T04:58:18;991.67;;;13.58;60.22
45071;BME280;30836;48.906;9.140;2023-02-19T04:59:19;991.63;;;13.50;60.23
45071;BME280;30836;48.906;9.140;2023-02-19T05:00:19;991.63;;;13.58;59.61
45071;BME280;30836;48.906;9.140;2023-02-19T05:01:20;991.65;;;13.68;59.51
45071;BME280;30836;48.906;9.140;2023-02-19T05:02:20;991.65;;;13.65;59.81
45071;BME280;30836;48.906;9.140;2023-02-19T05:03:20;991.69;;;13.58;59.94
45071;BME280;30836;48.906;9.140;2023-02-19T05:04:21;991.65;;;13.55;60.10
45071;BME280;30836;48.906;9.140;2023-02-19T05:05:21;991.67;;;13.50;60.30
45071;BME280;30836;48.906;9.140;2023-02-19T05:06:22;991.67;;;13.50;59.98
45071;BME280;30836;48.906;9.140;2023-02-19T05:07:22;991.73;;;13.53;59.88
45071;BME280;30836;48.906;9.140;2023-02-19T05:08:22;991.69;;;13.60;59.72
45071;BME280;30836;48.906;9.140;2023-02-19T05:09:23;991.73;;;13.73;59.12
45071;BME280;30836;48.906;9.140;2023-02-19T05:10:23;991.79;;;13.81;59.12
45071;BME280;30836;48.906;9.140;2023-02-19T05:11:24;991.77;;;13.78;59.29
45071;BME280;30836;48.906;9.140;2023-02-19T05:12:25;991.79;;;13.76;59.09
45071;BME280;30836;48.906;9.140;2023-02-19T05:13:25;991.87;;;13.71;59.36
45071;BME280;30836;48.906;9.140;2023-02-19T05:14:26;991.89;;;13.50;60.12
45071;BME280;30836;48.906;9.140;2023-02-19T05:15:26;991.81;;;13.24;60.76
45071;BME280;30836;48.906;9.140;2023-02-19T05:16:27;991.75;;;13.12;60.61
45071;BME280;30836;48.906;9.140;2023-02-19T05:17:27;991.77;;;13.10;60.73
45071;BME280;30836;48.906;9.140;2023-02-19T05:18:28;991.75;;;13.04;60.99
45071;BME280;30836;48.906;9.140;2023-02-19T05:19:29;991.73;;;12.99;60.96
45071;BME280;30836;48.906;9.140;2023-02-19T05:20:30;991.93;;;12.95;61.25
45071;BME280;30836;48.906;9.140;2023-02-19T05:21:30;991.85;;;12.87;61.57
45071;BME280;30836;48.906;9.140;2023-02-19T05:22:31;991.83;;;12.76;61.55
45071;BME280;30836;48.906;9.140;2023-02-19T05:23:31;991.75;;;12.67;61.75
45071;BME280;30836;48.906;9.140;2023-02-19T05:24:31;991.73;;;12.67;61.72
45071;BME280;30836;48.906;9.140;2023-02-19T05:25:32;991.73;;;12.66;61.84
45071;BME280;30836;48.906;9.140;2023-02-19T05:26:33;991.71;;;12.64;61.94
45071;BME280;30836;48.906;9.140;2023-02-19T05:27:33;991.79;;;12.65;61.73
45071;BME280;30836;48.906;9.140;2023-02-19T05:28:34;991.77;;;12.64;62.06
45071;BME280;30836;48.906;9.140;2023-02-19T05:29:35;991.75;;;12.65;61.81
45071;BME280;30836;48.906;9.140;2023-02-19T05:30:35;991.83;;;12.70;61.63
45071;BME280;30836;48.906;9.140;2023-02-19T05:31:36;991.81;;;12.63;62.19
45071;BME280;30836;48.906;9.140;2023-02-19T05:32:36;991.77;;;12.55;62.36
45071;BME280;30836;48.906;9.140;2023-02-19T05:33:37;991.77;;;12.56;62.23
45071;BME280;30836;48.906;9.140;2023-02-19T05:34:37;991.71;;;12.56;62.25
45071;BME280;30836;48.906;9.140;2023-02-19T05:35:45;991.71;;;12.48;62.80
45071;BME280;30836;48.906;9.140;2023-02-19T05:36:47;991.73;;;12.47;62.28
45071;BME280;30836;48.906;9.140;2023-02-19T05:37:47;991.75;;;12.61;61.50
45071;BME280;30836;48.906;9.140;2023-02-19T05:38:51;991.81;;;12.74;61.23
45071;BME280;30836;48.906;9.140;2023-02-19T05:39:55;991.85;;;12.91;60.67
45071;BME280;30836;48.906;9.140;2023-02-19T05:40:55;991.87;;;13.10;60.22
45071;BME280;30836;48.906;9.140;2023-02-19T05:42:06;991.91;;;13.17;60.02
45071;BME280;30836;48.906;9.140;2023-02-19T05:43:06;991.91;;;13.08;60.49
45071;BME280;30836;48.906;9.140;2023-02-19T05:44:08;991.93;;;13.10;60.03
45071;BME280;30836;48.906;9.140;2023-02-19T05:45:09;991.87;;;13.26;59.48
45071;BME280;30836;48.906;9.140;2023-02-19T05:46:11;991.89;;;13.42;58.99
45071;BME280;30836;48.906;9.140;2023-02-19T05:47:13;991.98;;;13.52;59.02
45071;BME280;30836;48.906;9.140;2023-02-19T05:48:13;991.95;;;13.49;58.85
45071;BME280;30836;48.906;9.140;2023-02-19T05:49:14;991.87;;;13.37;59.42
45071;BME280;30836;48.906;9.140;2023-02-19T05:50:14;991.91;;;13.31;59.23
45071;BME280;30836;48.906;9.140;2023-02-19T05:51:16;991.87;;;13.38;59.00
45071;BME280;30836;48.906;9.140;2023-02-19T05:52:18;991.87;;;13.47;58.42
45071;BME280;30836;48.906;9.140;2023-02-19T05:53:19;991.87;;;13.53;58.62
45071;BME280;30836;48.906;9.140;2023-02-19T05:54:19;991.91;;;13.50;58.65
45071;BME280;30836;48.906;9.140;2023-02-19T05:55:20;991.85;;;13.44;59.06
45071;BME280;30836;48.906;9.140;2023-02-19T05:57:26;991.96;;;13.11;60.22
45071;BME280;30836;48.906;9.140;2023-02-19T05:58:26;991.79;;;12.89;60.49
45071;BME280;30836;48.906;9.140;2023-02-19T05:59:27;991.77;;;12.68;61.31
45071;BME280;30836;48.906;9.140;2023-02-19T06:00:27;991.71;;;12.48;61.47
45071;BME280;30836;48.906;9.140;2023-02-19T06:01:28;991.81;;;12.43;61.41
45071;BME280;30836;48.906;9.140;2023-02-19T06:02:29;991.77;;;12.44;61.41
45071;BME280;30836;48.906;9.140;2023-02-19T06:03:30;991.73;;;12.42;61.49
45071;BME280;30836;48.906;9.140;2023-02-19T06:04:30;991.65;;;12.32;61.93
45071;BME280;30836;48.906;9.140;2023-02-19T06:05:30;991.67;;;12.28;61.87
45071;BME280;30836;48.906;9.140;2023-02-19T06:06:31;991.67;;;12.27;61.87
45071;BME280;30836;48.906;9.140;2023-02-19T06:07:32;991.71;;;12.24;61.94
45071;BME280;30836;48.906;9.140;2023-02-19T06:08:33;991.83;;;12.23;62.06
45071;BME280;30836;48.906;9.140;2023-02-19T06:09:33;991.81;;;12.27;61.86
45071;BME280;30836;48.906;9.140;2023-02-19T06:10:34;991.85;;;12.32;61.76
45071;BME280;30836;48.906;9.140;2023-02-19T06:11:34;991.83;;;12.38;61.32
45071;BME280;30836;48.906;9.140;2023-02-19T06:12:36;991.79;;;12.49;60.94
45071;BME280;30836;48.906;9.140;2023-02-19T06:13:37;991.77;;;12.56;60.97
45071;BME280;30836;48.906;9.140;2023-02-19T06:14:38;991.85;;;12.56;60.92
45071;BME280;30836;48.906;9.140;2023-02-19T06:15:38;991.85;;;12.49;61.10
45071;BME280;30836;48.906;9.140;2023-02-19T06:16:38;991.96;;;12.40;61.36
45071;BME280;30836;48.906;9.140;2023-02-19T06:17:39;991.91;;;12.40;61.07